createdAt,value
2023-04-07T00:01:25.708Z,92.40
2023-04-07T00:03:52.594Z,1.00
2023-04-07T00:06:19.556Z,1.00
2023-04-07T00:08:46.216Z,1.00
2023-04-07T00:11:13.019Z,1.00
2023-04-07T00:13:39.740Z,1.00
2023-04-07T00:16:06.623Z,59.00
2023-04-07T00:18:33.467Z,91.00
2023-04-07T00:21:00.335Z,1.00
2023-04-07T00:23:27.149Z,1.00
2023-04-07T00:25:53.982Z,68.90
2023-04-07T00:28:20.759Z,89.20
2023-04-07T00:30:47.484Z,1.00
2023-04-07T00:33:14.232Z,1.00
2023-04-07T00:35:41.063Z,21.10
2023-04-07T00:38:07.857Z,72.00
2023-04-07T00:40:34.714Z,93.90
2023-04-07T00:43:01.526Z,1.00
2023-04-07T00:45:28.340Z,92.50
2023-04-07T00:47:59.855Z,2.40
2023-04-07T00:50:26.695Z,1.00
2023-04-07T00:52:54.930Z,1.00
2023-04-07T00:55:21.672Z,90.70
2023-04-07T00:57:48.469Z,90.40
2023-04-07T01:00:15.802Z,1.00
2023-04-07T01:02:50.249Z,29.40
2023-04-07T01:05:23.464Z,1.00
2023-04-07T01:08:03.590Z,73.00
2023-04-07T01:10:52.854Z,92.50
2023-04-07T01:13:41.542Z,1.00
2023-04-07T01:16:13.403Z,24.30
2023-04-07T01:18:41.082Z,72.70
2023-04-07T01:21:13.922Z,90.80
2023-04-07T01:24:11.415Z,1.00
2023-04-07T01:26:39.313Z,1.00
2023-04-07T01:29:31.394Z,1.00
2023-04-07T01:32:00.835Z,8.90
2023-04-07T01:34:31.387Z,45.20
2023-04-07T01:37:01.489Z,56.50
2023-04-07T01:39:29.205Z,46.90
2023-04-07T01:41:57.605Z,48.10
2023-04-07T01:44:26.071Z,49.50
2023-04-07T01:46:54.136Z,47.90
2023-04-07T01:49:21.171Z,52.40
2023-04-07T01:51:51.938Z,63.10
2023-04-07T01:54:18.820Z,67.60
2023-04-07T01:56:46.017Z,69.00
2023-04-07T01:59:13.190Z,70.80
2023-04-07T02:01:40.550Z,76.20
2023-04-07T02:04:22.896Z,76.40
2023-04-07T02:06:57.530Z,77.20
2023-04-07T02:09:26.014Z,77.90
2023-04-07T02:11:55.640Z,79.60
2023-04-07T02:14:24.467Z,83.20
2023-04-07T02:16:52.755Z,84.60
2023-04-07T02:19:19.799Z,86.30
2023-04-07T02:21:48.661Z,87.60
2023-04-07T02:24:19.240Z,88.20
2023-04-07T02:26:46.086Z,89.60
2023-04-07T02:29:12.818Z,90.40
2023-04-07T02:31:39.771Z,90.80
2023-04-07T02:34:06.615Z,90.90
2023-04-07T02:36:33.409Z,90.90
2023-04-07T02:39:00.340Z,91.00
2023-04-07T02:41:27.475Z,91.40
2023-04-07T02:43:54.477Z,91.60
2023-04-07T02:46:21.582Z,91.70
2023-04-07T02:48:48.447Z,91.80
2023-04-07T02:51:15.292Z,91.80
2023-04-07T02:53:41.964Z,91.70
2023-04-07T02:56:08.810Z,91.80
2023-04-07T02:58:35.514Z,92.10
2023-04-07T03:01:02.553Z,92.10
2023-04-07T03:03:29.541Z,92.10
2023-04-07T03:05:56.519Z,92.10
2023-04-07T03:08:23.292Z,92.10
2023-04-07T03:10:50.006Z,92.00
2023-04-07T03:13:19.160Z,92.00
2023-04-07T03:15:46.121Z,92.10
2023-04-07T03:18:13.047Z,92.30
2023-04-07T03:20:41.906Z,92.30
2023-04-07T03:23:08.928Z,92.50
2023-04-07T03:25:35.817Z,92.60
2023-04-07T03:28:02.665Z,92.70
2023-04-07T03:30:29.396Z,92.70
2023-04-07T03:32:56.141Z,92.80
2023-04-07T03:35:22.898Z,92.70
2023-04-07T03:37:49.698Z,92.80
2023-04-07T03:40:16.603Z,92.70
2023-04-07T03:42:43.620Z,92.80
2023-04-07T03:45:10.451Z,92.90
2023-04-07T03:47:37.290Z,92.90
2023-04-07T03:50:04.443Z,93.00
2023-04-07T03:52:31.556Z,93.00
2023-04-07T03:54:58.321Z,93.20
2023-04-07T03:57:25.117Z,93.20
2023-04-07T03:59:51.853Z,93.30
2023-04-07T04:02:19.228Z,93.40
2023-04-07T04:04:46.112Z,93.30
2023-04-07T04:07:12.926Z,93.30
2023-04-07T04:09:40.023Z,93.40
2023-04-07T04:12:06.884Z,93.40
2023-04-07T04:14:33.624Z,93.40
2023-04-07T04:17:00.582Z,93.40
2023-04-07T04:19:27.376Z,93.50
2023-04-07T04:21:54.196Z,93.50
2023-04-07T04:24:20.962Z,93.60
2023-04-07T04:26:47.640Z,93.70
2023-04-07T04:29:14.302Z,93.70
2023-04-07T04:31:41.116Z,93.70
2023-04-07T04:34:07.890Z,93.70
2023-04-07T04:36:35.654Z,93.70
2023-04-07T04:39:03.350Z,93.80
2023-04-07T04:41:29.999Z,93.70
2023-04-07T04:43:56.737Z,93.70
2023-04-07T04:46:25.030Z,93.80
2023-04-07T04:48:52.764Z,93.90
2023-04-07T04:51:19.668Z,94.00
2023-04-07T04:53:46.382Z,94.00
2023-04-07T04:56:13.111Z,94.10
2023-04-07T04:58:46.367Z,94.10
2023-04-07T05:01:13.985Z,94.20
2023-04-07T05:03:40.973Z,94.30
2023-04-07T05:06:08.058Z,94.30
2023-04-07T05:08:34.794Z,94.40
2023-04-07T05:11:01.581Z,94.40
2023-04-07T05:13:30.687Z,94.40
2023-04-07T05:15:57.630Z,94.40
2023-04-07T05:18:24.606Z,94.40
2023-04-07T05:20:51.474Z,94.40
2023-04-07T05:23:18.310Z,94.40
2023-04-07T05:25:45.094Z,94.40
2023-04-07T05:28:11.819Z,94.50
2023-04-07T05:30:38.621Z,94.40
2023-04-07T05:33:05.529Z,94.40
2023-04-07T05:35:32.408Z,94.40
2023-04-07T05:37:59.128Z,94.50
2023-04-07T05:40:25.923Z,94.50
2023-04-07T05:42:52.640Z,94.50
2023-04-07T05:45:19.442Z,94.50
2023-04-07T05:47:49.977Z,94.50
2023-04-07T05:50:17.875Z,94.50
2023-04-07T05:52:44.711Z,94.50
2023-04-07T05:55:11.625Z,94.50
2023-04-07T05:57:38.638Z,94.50
2023-04-07T06:00:06.065Z,94.50
2023-04-07T06:02:32.973Z,94.50
2023-04-07T06:04:59.896Z,94.50
2023-04-07T06:07:26.677Z,94.50
2023-04-07T06:09:53.387Z,94.50
2023-04-07T06:12:20.494Z,94.50
2023-04-07T06:14:52.920Z,94.50
2023-04-07T06:17:19.964Z,94.50
2023-04-07T06:19:46.831Z,94.50
2023-04-07T06:22:13.703Z,94.60
2023-04-07T06:24:40.478Z,94.60
2023-04-07T06:27:07.571Z,94.60
2023-04-07T06:29:34.580Z,94.70
2023-04-07T06:32:02.410Z,94.70
2023-04-07T06:34:29.245Z,94.70
2023-04-07T06:36:58.083Z,94.70
2023-04-07T06:39:27.427Z,94.70
2023-04-07T06:41:54.192Z,94.70
2023-04-07T06:44:20.977Z,94.70
2023-04-07T06:46:50.386Z,94.70
2023-04-07T06:49:17.292Z,94.60
2023-04-07T06:51:44.015Z,94.60
2023-04-07T06:54:13.956Z,94.60
2023-04-07T06:56:44.048Z,94.50
2023-04-07T06:59:11.108Z,94.50
2023-04-07T07:01:38.203Z,94.50
2023-04-07T07:04:08.265Z,94.50
2023-04-07T07:06:35.340Z,94.60
2023-04-07T07:09:03.169Z,94.60
2023-04-07T07:11:29.968Z,94.60
2023-04-07T07:13:56.707Z,94.60
2023-04-07T07:16:26.528Z,94.50
2023-04-07T07:18:53.301Z,94.30
2023-04-07T07:21:20.354Z,94.10
2023-04-07T07:23:47.203Z,94.00
2023-04-07T07:26:14.058Z,94.00
2023-04-07T07:28:40.939Z,93.80
2023-04-07T07:31:13.268Z,93.70
2023-04-07T07:33:41.531Z,93.50
2023-04-07T07:36:08.802Z,93.30
2023-04-07T07:38:37.449Z,93.90
2023-04-07T07:41:04.580Z,94.20
2023-04-07T07:43:31.277Z,93.90
2023-04-07T07:45:58.169Z,93.50
2023-04-07T07:48:25.000Z,93.30
2023-04-07T07:50:52.541Z,93.20
2023-04-07T07:53:19.541Z,92.70
2023-04-07T07:55:47.142Z,91.50
2023-04-07T07:58:14.159Z,90.90
2023-04-07T08:00:41.320Z,90.70
2023-04-07T08:03:08.253Z,90.90
2023-04-07T08:05:35.370Z,90.40
2023-04-07T08:08:03.018Z,79.00
2023-04-07T08:10:29.862Z,77.70
2023-04-07T08:12:56.707Z,79.50
2023-04-07T08:15:23.455Z,67.80
2023-04-07T08:17:50.324Z,64.30
2023-04-07T08:20:17.454Z,67.70
2023-04-07T08:22:44.231Z,66.40
2023-04-07T08:25:11.083Z,37.90
2023-04-07T08:27:37.917Z,22.40
2023-04-07T08:30:09.149Z,1.00
2023-04-07T08:32:44.375Z,1.00
2023-04-07T08:35:12.072Z,1.00
2023-04-07T08:37:40.147Z,1.00
2023-04-07T08:40:07.620Z,74.70
2023-04-07T08:42:35.350Z,4.40
2023-04-07T08:45:06.868Z,1.00
2023-04-07T08:47:35.577Z,91.50
2023-04-07T08:50:05.497Z,47.00
2023-04-07T08:52:48.639Z,64.40
2023-04-07T08:55:15.528Z,1.00
2023-04-07T08:57:43.403Z,1.00
2023-04-07T09:00:13.131Z,7.00
2023-04-07T09:02:43.660Z,1.00
2023-04-07T09:05:11.561Z,1.00
2023-04-07T09:07:43.390Z,32.10
2023-04-07T09:10:10.749Z,3.60
2023-04-07T09:12:38.648Z,1.00
2023-04-07T09:15:08.926Z,1.00
2023-04-07T09:17:35.881Z,83.40
2023-04-07T09:20:02.965Z,47.50
2023-04-07T09:22:45.668Z,1.00
2023-04-07T09:25:27.497Z,86.60
2023-04-07T09:27:58.771Z,43.30
2023-04-07T09:30:26.445Z,1.00
2023-04-07T09:32:53.284Z,91.20
2023-04-07T09:35:23.021Z,90.20
2023-04-07T09:38:09.445Z,1.00
2023-04-07T09:40:40.007Z,1.00
2023-04-07T09:43:07.204Z,1.00
2023-04-07T09:45:36.846Z,1.00
2023-04-07T09:48:09.047Z,1.00
2023-04-07T09:50:39.806Z,23.70
2023-04-07T09:53:07.058Z,1.00
2023-04-07T09:55:35.303Z,1.00
2023-04-07T09:58:04.082Z,67.20
2023-04-07T10:00:30.888Z,55.00
2023-04-07T10:02:58.850Z,1.00
2023-04-07T10:05:25.903Z,78.90
2023-04-07T10:07:53.082Z,1.00
2023-04-07T10:10:20.109Z,1.00
2023-04-07T10:12:49.879Z,1.00
2023-04-07T10:15:17.118Z,76.70
2023-04-07T10:17:51.759Z,1.00
2023-04-07T10:20:21.002Z,1.00
2023-04-07T10:22:51.438Z,67.10
2023-04-07T10:25:21.217Z,1.00
2023-04-07T10:27:59.179Z,78.00
2023-04-07T10:30:29.000Z,1.00
2023-04-07T10:32:56.109Z,72.20
2023-04-07T10:35:24.202Z,79.40
2023-04-07T10:38:10.927Z,1.00
2023-04-07T10:40:38.266Z,1.00
2023-04-07T10:43:09.700Z,63.40
2023-04-07T10:45:48.636Z,1.00
2023-04-07T10:48:17.215Z,1.00
2023-04-07T10:50:45.647Z,1.00
2023-04-07T10:53:14.333Z,87.00
2023-04-07T10:55:45.517Z,68.60
2023-04-07T10:58:25.052Z,7.80
2023-04-07T11:01:04.829Z,1.00
2023-04-07T11:03:36.806Z,1.00
2023-04-07T11:06:11.039Z,75.40
2023-04-07T11:08:43.314Z,55.80
2023-04-07T11:11:12.051Z,8.10
2023-04-07T11:13:42.481Z,30.00
2023-04-07T11:16:10.185Z,25.40
2023-04-07T11:18:37.491Z,1.00
2023-04-07T11:21:08.078Z,8.10
2023-04-07T11:23:46.036Z,1.00
2023-04-07T11:26:14.966Z,1.00
2023-04-07T11:28:49.820Z,1.00
2023-04-07T11:31:26.740Z,1.00
2023-04-07T11:33:59.296Z,1.00
2023-04-07T11:36:33.228Z,1.00
2023-04-07T11:39:01.517Z,90.00
2023-04-07T11:41:30.688Z,74.40
2023-04-07T11:44:07.954Z,83.40
2023-04-07T11:46:35.449Z,85.60
2023-04-07T11:49:13.207Z,68.20
2023-04-07T11:51:41.288Z,61.50
2023-04-07T11:54:08.220Z,22.60
2023-04-07T11:56:46.116Z,49.50
2023-04-07T11:59:26.002Z,21.70
2023-04-07T12:01:56.168Z,7.80
2023-04-07T12:04:24.590Z,16.80
2023-04-07T12:06:51.715Z,1.00
2023-04-07T12:09:44.604Z,1.00
2023-04-07T12:12:11.466Z,1.00
2023-04-07T12:14:38.372Z,1.00
2023-04-07T12:17:05.305Z,1.00
2023-04-07T12:19:34.809Z,1.00
2023-04-07T12:22:01.699Z,1.00
2023-04-07T12:24:28.651Z,92.40
2023-04-07T12:26:56.168Z,88.90
2023-04-07T12:29:23.087Z,90.10
2023-04-07T12:31:51.218Z,92.80
2023-04-07T12:34:18.714Z,82.50
2023-04-07T12:36:45.682Z,81.00
2023-04-07T12:39:12.628Z,80.60
2023-04-07T12:41:39.827Z,74.20
2023-04-07T12:44:06.782Z,69.30
2023-04-07T12:46:33.646Z,68.20
2023-04-07T12:49:01.029Z,71.80
2023-04-07T12:51:28.461Z,65.70
2023-04-07T12:53:55.319Z,71.40
2023-04-07T12:56:22.455Z,67.10
2023-04-07T12:58:49.447Z,65.70
2023-04-07T13:01:16.835Z,64.50
2023-04-07T13:03:44.251Z,60.70
2023-04-07T13:06:11.605Z,70.80
2023-04-07T13:08:39.420Z,68.00
2023-04-07T13:11:06.515Z,57.80
2023-04-07T13:13:34.073Z,62.50
2023-04-07T13:16:01.237Z,58.70
2023-04-07T13:18:28.006Z,64.80
2023-04-07T13:21:26.471Z,42.80
2023-04-07T13:23:43.917Z,62.20
2023-04-07T13:26:11.385Z,55.40
2023-04-07T13:28:38.877Z,30.00
2023-04-07T13:31:05.811Z,29.20
2023-04-07T13:33:32.547Z,23.50
2023-04-07T13:35:59.274Z,14.60
2023-04-07T13:38:26.414Z,29.80
2023-04-07T13:40:53.114Z,50.10
2023-04-07T13:43:20.204Z,46.20
2023-04-07T13:45:47.160Z,39.10
2023-04-07T13:48:14.742Z,21.00
2023-04-07T13:50:41.620Z,21.80
2023-04-07T13:53:08.406Z,38.50
2023-04-07T13:55:35.236Z,31.40
2023-04-07T13:58:02.106Z,38.60
2023-04-07T14:00:28.843Z,34.80
2023-04-07T14:02:58.775Z,14.20
2023-04-07T14:05:25.641Z,14.20
2023-04-07T14:07:52.477Z,13.70
2023-04-07T14:10:19.410Z,2.60
2023-04-07T14:12:46.560Z,10.70
2023-04-07T14:15:13.346Z,1.00
2023-04-07T14:17:40.185Z,1.00
2023-04-07T14:20:07.687Z,13.60
2023-04-07T14:22:34.540Z,1.00
2023-04-07T14:25:01.560Z,1.00
2023-04-07T14:27:31.035Z,1.00
2023-04-07T14:29:59.582Z,1.00
2023-04-07T14:32:29.493Z,1.00
2023-04-07T14:34:56.659Z,1.00
2023-04-07T14:37:26.450Z,1.00
2023-04-07T14:40:02.564Z,1.00
2023-04-07T14:42:30.512Z,1.00
2023-04-07T14:44:59.975Z,1.00
2023-04-07T14:47:27.520Z,1.00
2023-04-07T14:49:54.634Z,1.00
2023-04-07T14:52:24.551Z,1.00
2023-04-07T14:54:51.367Z,1.00
2023-04-07T14:57:18.106Z,1.00
2023-04-07T14:59:44.840Z,1.00
2023-04-07T15:02:11.739Z,1.00
2023-04-07T15:04:38.795Z,1.00
2023-04-07T15:07:05.782Z,1.00
2023-04-07T15:09:32.564Z,1.00
2023-04-07T15:12:08.731Z,1.00
2023-04-07T15:14:35.573Z,1.00
2023-04-07T15:17:02.357Z,1.00
2023-04-07T15:19:29.750Z,1.00
2023-04-07T15:21:56.461Z,1.00
2023-04-07T15:24:23.152Z,1.00
2023-04-07T15:26:49.983Z,1.00
2023-04-07T15:29:16.744Z,1.00
2023-04-07T15:31:43.526Z,1.00
2023-04-07T15:34:10.234Z,1.00
2023-04-07T15:36:36.915Z,1.00
2023-04-07T15:39:04.875Z,1.00
2023-04-07T15:41:31.711Z,1.00
2023-04-07T15:44:00.627Z,2.70
2023-04-07T15:46:27.922Z,11.70
2023-04-07T15:48:54.997Z,17.30
2023-04-07T15:51:21.781Z,11.40
2023-04-07T15:53:48.867Z,26.90
2023-04-07T15:56:15.909Z,32.80
2023-04-07T15:58:42.772Z,42.00
2023-04-07T16:01:09.638Z,49.20
2023-04-07T16:03:36.608Z,60.00
2023-04-07T16:06:03.610Z,49.00
2023-04-07T16:08:30.490Z,42.20
2023-04-07T16:10:57.177Z,34.30
2023-04-07T16:13:23.981Z,37.60
2023-04-07T16:15:54.937Z,24.30
2023-04-07T16:18:21.762Z,37.70
2023-04-07T16:20:48.499Z,54.90
2023-04-07T16:23:15.309Z,55.30
2023-04-07T16:25:42.127Z,65.30
2023-04-07T16:28:08.871Z,74.90
2023-04-07T16:30:36.191Z,87.10
2023-04-07T16:33:03.390Z,1.00
2023-04-07T16:35:33.345Z,1.00
2023-04-07T16:38:04.293Z,1.00
2023-04-07T16:40:31.450Z,1.00
2023-04-07T16:42:58.217Z,3.20
2023-04-07T16:45:24.979Z,71.20
2023-04-07T16:47:51.728Z,92.00
2023-04-07T16:50:18.695Z,1.00
2023-04-07T16:52:46.895Z,18.00
2023-04-07T16:55:13.771Z,35.50
2023-04-07T16:57:40.574Z,40.40
2023-04-07T17:00:07.976Z,38.30
2023-04-07T17:02:35.200Z,33.10
2023-04-07T17:05:02.219Z,80.70
2023-04-07T17:07:29.022Z,1.00
2023-04-07T17:09:55.778Z,76.90
2023-04-07T17:12:22.744Z,1.00
2023-04-07T17:14:49.663Z,1.00
2023-04-07T17:17:16.684Z,1.00
2023-04-07T17:19:43.453Z,1.00
2023-04-07T17:22:10.471Z,65.20
2023-04-07T17:24:37.201Z,90.10
2023-04-07T17:27:03.903Z,18.80
2023-04-07T17:29:31.347Z,1.00
2023-04-07T17:31:58.197Z,32.50
2023-04-07T17:34:25.129Z,66.10
2023-04-07T17:36:51.930Z,1.00
2023-04-07T17:39:18.766Z,1.00
2023-04-07T17:41:46.828Z,29.30
2023-04-07T17:44:13.785Z,1.00
2023-04-07T17:46:40.632Z,65.10
2023-04-07T17:49:07.455Z,1.00
2023-04-07T17:51:34.260Z,1.00
2023-04-07T17:54:00.997Z,71.30
2023-04-07T17:56:27.831Z,1.00
2023-04-07T17:58:54.652Z,1.00
2023-04-07T18:01:21.560Z,1.00
2023-04-07T18:03:48.699Z,1.00
2023-04-07T18:06:19.207Z,1.00
2023-04-07T18:08:47.692Z,13.30
2023-04-07T18:11:15.001Z,63.20
2023-04-07T18:13:41.785Z,74.70
2023-04-07T18:16:11.492Z,83.60
2023-04-07T18:18:38.321Z,89.60
2023-04-07T18:21:06.702Z,1.00
2023-04-07T18:23:33.639Z,1.00
2023-04-07T18:26:06.631Z,1.00
2023-04-07T18:28:33.982Z,1.00
2023-04-07T18:31:09.890Z,1.00
2023-04-07T18:33:36.901Z,1.00
2023-04-07T18:36:07.018Z,1.00
2023-04-07T18:38:38.223Z,1.00
2023-04-07T18:41:07.256Z,1.00
2023-04-07T18:43:34.127Z,1.00
2023-04-07T18:46:00.973Z,1.00
2023-04-07T18:48:28.487Z,1.00
2023-04-07T18:50:56.562Z,1.00
2023-04-07T18:53:24.845Z,1.00
2023-04-07T18:55:51.919Z,1.00
2023-04-07T18:58:19.879Z,1.00
2023-04-07T19:00:49.467Z,1.00
2023-04-07T19:03:16.578Z,90.80
2023-04-07T19:05:47.244Z,86.40
2023-04-07T19:08:15.947Z,80.10
2023-04-07T19:10:42.900Z,73.90
2023-04-07T19:13:09.737Z,70.60
2023-04-07T19:15:38.445Z,76.50
2023-04-07T19:18:05.482Z,80.90
2023-04-07T19:20:33.748Z,83.80
2023-04-07T19:23:01.828Z,91.40
2023-04-07T19:25:28.955Z,1.00
2023-04-07T19:27:55.821Z,1.00
2023-04-07T19:30:22.657Z,1.00
2023-04-07T19:32:49.766Z,1.00
2023-04-07T19:35:16.933Z,1.00
2023-04-07T19:37:44.257Z,1.00
2023-04-07T19:40:12.036Z,1.00
2023-04-07T19:42:39.946Z,1.00
2023-04-07T19:45:08.240Z,91.20
2023-04-07T19:47:35.920Z,90.90
2023-04-07T19:50:03.842Z,87.70
2023-04-07T19:52:32.032Z,89.10
2023-04-07T19:54:59.694Z,88.30
2023-04-07T19:57:26.677Z,89.20
2023-04-07T19:59:53.387Z,90.90
2023-04-07T20:02:20.241Z,1.00
2023-04-07T20:04:47.238Z,91.60
2023-04-07T20:07:13.986Z,1.00
2023-04-07T20:09:40.708Z,1.00
2023-04-07T20:12:07.456Z,1.00
2023-04-07T20:14:34.191Z,1.00
2023-04-07T20:17:01.031Z,1.00
2023-04-07T20:19:27.800Z,1.00
2023-04-07T20:21:54.506Z,1.00
2023-04-07T20:24:21.295Z,8.20
2023-04-07T20:26:48.005Z,26.60
2023-04-07T20:29:14.757Z,35.20
2023-04-07T20:31:41.489Z,43.60
2023-04-07T20:34:08.245Z,61.20
2023-04-07T20:36:35.380Z,65.10
2023-04-07T20:39:02.603Z,61.60
2023-04-07T20:41:29.352Z,63.00
2023-04-07T20:43:56.174Z,67.80
2023-04-07T20:46:23.008Z,69.30
2023-04-07T20:48:50.115Z,69.30
2023-04-07T20:51:17.491Z,70.20
2023-04-07T20:53:44.207Z,70.70
2023-04-07T20:56:11.220Z,72.00
2023-04-07T20:58:38.181Z,73.70
2023-04-07T21:01:05.053Z,75.90
2023-04-07T21:03:32.177Z,77.50
2023-04-07T21:05:59.050Z,78.20
2023-04-07T21:08:25.958Z,77.40
2023-04-07T21:10:53.337Z,78.10
2023-04-07T21:13:22.346Z,78.40
2023-04-07T21:15:49.189Z,77.60
2023-04-07T21:18:16.011Z,77.20
2023-04-07T21:20:42.774Z,75.80
2023-04-07T21:23:09.481Z,76.30
2023-04-07T21:25:39.540Z,77.70
2023-04-07T21:28:06.510Z,78.90
2023-04-07T21:30:33.350Z,79.50
2023-04-07T21:33:00.341Z,79.50
2023-04-07T21:35:28.732Z,80.40
2023-04-07T21:37:56.444Z,81.20
2023-04-07T21:40:23.265Z,81.90
2023-04-07T21:42:52.013Z,82.30
2023-04-07T21:45:19.627Z,82.90
2023-04-07T21:47:46.945Z,83.60
2023-04-07T21:50:13.862Z,84.10
2023-04-07T21:52:42.456Z,84.50
2023-04-07T21:55:10.852Z,85.00
2023-04-07T21:57:37.813Z,85.30
2023-04-07T22:00:07.264Z,85.80
2023-04-07T22:02:34.274Z,86.10
2023-04-07T22:05:01.189Z,85.80
2023-04-07T22:07:27.936Z,85.80
2023-04-07T22:09:54.849Z,85.90
2023-04-07T22:12:21.525Z,92.80
2023-04-07T22:14:48.247Z,92.90
2023-04-07T22:17:15.608Z,92.90
2023-04-07T22:19:42.403Z,93.10
2023-04-07T22:22:09.176Z,93.40
2023-04-07T22:24:35.901Z,93.50
2023-04-07T22:27:03.352Z,93.60
2023-04-07T22:29:30.332Z,93.60
2023-04-07T22:31:57.086Z,93.60
2023-04-07T22:34:23.934Z,93.80
2023-04-07T22:36:50.823Z,94.00
2023-04-07T22:39:17.789Z,94.10
2023-04-07T22:41:44.494Z,94.10
2023-04-07T22:44:11.216Z,94.00
2023-04-07T22:46:37.990Z,94.00
2023-04-07T22:49:05.267Z,94.00
2023-04-07T22:51:32.225Z,94.00
2023-04-07T22:53:59.027Z,94.10
2023-04-07T22:56:27.245Z,94.30
2023-04-07T22:58:54.098Z,94.30
2023-04-07T23:01:21.065Z,94.30
2023-04-07T23:03:47.838Z,94.30
2023-04-07T23:06:14.573Z,94.30
2023-04-07T23:08:41.345Z,94.30
2023-04-07T23:11:11.138Z,94.30
2023-04-07T23:13:38.438Z,94.30
2023-04-07T23:16:06.369Z,94.30
2023-04-07T23:18:33.213Z,94.40
2023-04-07T23:21:00.009Z,94.50
2023-04-07T23:23:27.088Z,94.60
2023-04-07T23:25:53.872Z,94.60
2023-04-07T23:28:21.104Z,94.70
2023-04-07T23:30:47.899Z,94.80
2023-04-07T23:33:14.967Z,94.90
2023-04-07T23:35:41.789Z,94.90
2023-04-07T23:38:09.338Z,94.90
2023-04-07T23:40:36.483Z,94.90
2023-04-07T23:43:03.367Z,95.00
2023-04-07T23:45:30.351Z,95.00
2023-04-07T23:47:57.219Z,95.00
2023-04-07T23:50:27.301Z,95.00
2023-04-07T23:52:54.828Z,95.00
2023-04-07T23:55:21.636Z,95.10
2023-04-07T23:57:48.433Z,95.10
